sensor_id;sensor_type;location;lat;lon;timestamp;P1;durP1;ratioP1;P2;durP2;ratioP2
12308;SDS011;6217;48.150;17.142;2022-09-30T00:03:12;3.47;;;3.13;;
12308;SDS011;6217;48.150;17.142;2022-09-30T00:07:18;3.83;;;3.33;;
12308;SDS011;6217;48.150;17.142;2022-09-30T00:11:25;3.05;;;2.72;;
12308;SDS011;6217;48.150;17.142;2022-09-30T00:15:34;4.47;;;3.08;;
12308;SDS011;6217;48.150;17.142;2022-09-30T00:19:40;3.45;;;3.00;;
12308;SDS011;6217;48.150;17.142;2022-09-30T00:23:46;3.88;;;2.92;;
12308;SDS011;6217;48.150;17.142;2022-09-30T00:27:51;3.15;;;2.67;;
12308;SDS011;6217;48.150;17.142;2022-09-30T00:31:57;3.85;;;3.03;;
12308;SDS011;6217;48.150;17.142;2022-09-30T00:36:03;5.07;;;2.40;;
12308;SDS011;6217;48.150;17.142;2022-09-30T00:40:09;4.22;;;3.22;;
12308;SDS011;6217;48.150;17.142;2022-09-30T00:49:11;6.93;;;3.88;;
12308;SDS011;6217;48.150;17.142;2022-09-30T00:53:29;4.57;;;3.37;;
12308;SDS011;6217;48.150;17.142;2022-09-30T00:57:40;8.43;;;3.72;;
12308;SDS011;6217;48.150;17.142;2022-09-30T01:01:47;5.65;;;4.22;;
12308;SDS011;6217;48.150;17.142;2022-09-30T01:05:54;5.15;;;3.63;;
12308;SDS011;6217;48.150;17.142;2022-09-30T01:10:01;4.72;;;4.05;;
12308;SDS011;6217;48.150;17.142;2022-09-30T01:14:09;5.50;;;3.80;;
12308;SDS011;6217;48.150;17.142;2022-09-30T01:18:30;7.93;;;4.43;;
12308;SDS011;6217;48.150;17.142;2022-09-30T01:41:03;6.70;;;3.78;;
12308;SDS011;6217;48.150;17.142;2022-09-30T01:50:09;4.13;;;3.58;;
12308;SDS011;6217;48.150;17.142;2022-09-30T01:54:39;7.15;;;4.03;;
12308;SDS011;6217;48.150;17.142;2022-09-30T01:59:03;5.82;;;4.50;;
12308;SDS011;6217;48.150;17.142;2022-09-30T02:03:16;4.68;;;3.55;;
12308;SDS011;6217;48.150;17.142;2022-09-30T02:07:30;5.47;;;4.25;;
12308;SDS011;6217;48.150;17.142;2022-09-30T02:11:43;6.55;;;4.47;;
12308;SDS011;6217;48.150;17.142;2022-09-30T02:15:53;6.00;;;4.72;;
12308;SDS011;6217;48.150;17.142;2022-09-30T02:20:05;5.63;;;5.07;;
12308;SDS011;6217;48.150;17.142;2022-09-30T02:24:15;5.95;;;5.35;;
12308;SDS011;6217;48.150;17.142;2022-09-30T02:28:24;6.55;;;5.43;;
12308;SDS011;6217;48.150;17.142;2022-09-30T02:32:36;11.23;;;4.57;;
12308;SDS011;6217;48.150;17.142;2022-09-30T02:36:59;6.63;;;5.03;;
12308;SDS011;6217;48.150;17.142;2022-09-30T02:41:18;5.70;;;4.95;;
12308;SDS011;6217;48.150;17.142;2022-09-30T02:45:31;6.03;;;5.43;;
12308;SDS011;6217;48.150;17.142;2022-09-30T02:49:55;10.93;;;5.05;;
12308;SDS011;6217;48.150;17.142;2022-09-30T02:54:46;6.28;;;5.68;;
12308;SDS011;6217;48.150;17.142;2022-09-30T02:59:18;5.80;;;5.25;;
12308;SDS011;6217;48.150;17.142;2022-09-30T03:03:31;6.65;;;4.97;;
12308;SDS011;6217;48.150;17.142;2022-09-30T03:07:42;6.55;;;4.85;;
12308;SDS011;6217;48.150;17.142;2022-09-30T03:11:48;7.72;;;5.53;;
12308;SDS011;6217;48.150;17.142;2022-09-30T03:29:58;12.15;;;5.93;;
12308;SDS011;6217;48.150;17.142;2022-09-30T03:34:19;6.65;;;5.80;;
12308;SDS011;6217;48.150;17.142;2022-09-30T03:43:36;14.60;;;5.90;;
12308;SDS011;6217;48.150;17.142;2022-09-30T03:47:44;9.13;;;6.70;;
12308;SDS011;6217;48.150;17.142;2022-09-30T03:51:55;6.87;;;6.17;;
12308;SDS011;6217;48.150;17.142;2022-09-30T03:56:02;7.60;;;6.90;;
12308;SDS011;6217;48.150;17.142;2022-09-30T04:00:08;9.55;;;7.25;;
12308;SDS011;6217;48.150;17.142;2022-09-30T04:04:15;11.75;;;6.35;;
12308;SDS011;6217;48.150;17.142;2022-09-30T04:08:21;10.32;;;5.57;;
12308;SDS011;6217;48.150;17.142;2022-09-30T04:12:27;7.82;;;6.30;;
12308;SDS011;6217;48.150;17.142;2022-09-30T04:16:33;7.07;;;5.30;;
12308;SDS011;6217;48.150;17.142;2022-09-30T04:20:39;6.32;;;4.78;;
12308;SDS011;6217;48.150;17.142;2022-09-30T04:24:45;5.63;;;5.13;;
12308;SDS011;6217;48.150;17.142;2022-09-30T04:28:51;8.68;;;5.53;;
12308;SDS011;6217;48.150;17.142;2022-09-30T04:33:03;4.90;;;4.40;;
12308;SDS011;6217;48.150;17.142;2022-09-30T04:37:12;4.80;;;3.80;;
12308;SDS011;6217;48.150;17.142;2022-09-30T04:41:18;6.68;;;4.55;;
12308;SDS011;6217;48.150;17.142;2022-09-30T04:45:24;5.85;;;4.05;;
12308;SDS011;6217;48.150;17.142;2022-09-30T04:49:30;4.72;;;3.63;;
12308;SDS011;6217;48.150;17.142;2022-09-30T04:53:36;7.25;;;4.22;;
12308;SDS011;6217;48.150;17.142;2022-09-30T04:57:43;7.22;;;5.82;;
12308;SDS011;6217;48.150;17.142;2022-09-30T05:01:49;9.38;;;7.70;;
12308;SDS011;6217;48.150;17.142;2022-09-30T05:05:55;10.80;;;8.60;;
12308;SDS011;6217;48.150;17.142;2022-09-30T05:10:01;10.65;;;9.52;;
12308;SDS011;6217;48.150;17.142;2022-09-30T05:14:07;13.85;;;8.25;;
12308;SDS011;6217;48.150;17.142;2022-09-30T05:18:14;11.10;;;8.30;;
12308;SDS011;6217;48.150;17.142;2022-09-30T05:22:20;10.55;;;8.18;;
12308;SDS011;6217;48.150;17.142;2022-09-30T05:26:28;9.07;;;7.72;;
12308;SDS011;6217;48.150;17.142;2022-09-30T05:30:34;8.57;;;6.55;;
12308;SDS011;6217;48.150;17.142;2022-09-30T05:34:40;7.93;;;5.70;;
12308;SDS011;6217;48.150;17.142;2022-09-30T05:38:49;4.82;;;4.40;;
12308;SDS011;6217;48.150;17.142;2022-09-30T05:42:56;13.90;;;5.55;;
12308;SDS011;6217;48.150;17.142;2022-09-30T05:47:03;7.65;;;6.30;;
12308;SDS011;6217;48.150;17.142;2022-09-30T05:51:09;6.80;;;5.22;;
12308;SDS011;6217;48.150;17.142;2022-09-30T05:55:17;5.72;;;5.18;;
12308;SDS011;6217;48.150;17.142;2022-09-30T05:59:24;7.78;;;4.80;;
12308;SDS011;6217;48.150;17.142;2022-09-30T06:03:30;6.45;;;5.28;;
12308;SDS011;6217;48.150;17.142;2022-09-30T06:07:36;7.93;;;4.75;;
12308;SDS011;6217;48.150;17.142;2022-09-30T06:11:43;4.38;;;3.60;;
12308;SDS011;6217;48.150;17.142;2022-09-30T06:15:58;7.05;;;4.03;;
12308;SDS011;6217;48.150;17.142;2022-09-30T06:20:06;4.15;;;3.72;;
12308;SDS011;6217;48.150;17.142;2022-09-30T06:24:14;5.32;;;3.90;;
12308;SDS011;6217;48.150;17.142;2022-09-30T06:28:20;4.60;;;3.53;;
12308;SDS011;6217;48.150;17.142;2022-09-30T06:32:27;5.63;;;4.22;;
12308;SDS011;6217;48.150;17.142;2022-09-30T06:36:34;5.90;;;2.40;;
12308;SDS011;6217;48.150;17.142;2022-09-30T06:40:40;3.63;;;2.20;;
12308;SDS011;6217;48.150;17.142;2022-09-30T06:44:47;3.10;;;2.42;;
12308;SDS011;6217;48.150;17.142;2022-09-30T06:48:54;4.50;;;3.00;;
12308;SDS011;6217;48.150;17.142;2022-09-30T06:53:02;3.70;;;1.90;;
12308;SDS011;6217;48.150;17.142;2022-09-30T06:57:10;4.03;;;1.80;;
12308;SDS011;6217;48.150;17.142;2022-09-30T07:01:17;3.65;;;1.80;;
12308;SDS011;6217;48.150;17.142;2022-09-30T07:05:25;3.95;;;1.42;;
12308;SDS011;6217;48.150;17.142;2022-09-30T07:09:31;1.63;;;1.10;;
12308;SDS011;6217;48.150;17.142;2022-09-30T07:13:37;2.50;;;0.85;;
12308;SDS011;6217;48.150;17.142;2022-09-30T07:17:43;2.83;;;1.67;;
12308;SDS011;6217;48.150;17.142;2022-09-30T07:21:55;1.85;;;1.33;;
12308;SDS011;6217;48.150;17.142;2022-09-30T07:26:22;5.60;;;0.85;;
12308;SDS011;6217;48.150;17.142;2022-09-30T07:30:28;0.85;;;0.75;;
12308;SDS011;6217;48.150;17.142;2022-09-30T07:34:35;0.75;;;0.75;;
12308;SDS011;6217;48.150;17.142;2022-09-30T07:38:42;0.80;;;0.70;;
12308;SDS011;6217;48.150;17.142;2022-09-30T07:42:49;2.15;;;1.00;;
12308;SDS011;6217;48.150;17.142;2022-09-30T07:46:55;1.83;;;1.15;;
12308;SDS011;6217;48.150;17.142;2022-09-30T07:51:01;0.80;;;0.80;;
12308;SDS011;6217;48.150;17.142;2022-09-30T07:55:07;0.80;;;0.80;;
12308;SDS011;6217;48.150;17.142;2022-09-30T07:59:13;1.23;;;0.90;;
12308;SDS011;6217;48.150;17.142;2022-09-30T08:03:19;2.22;;;1.40;;
12308;SDS011;6217;48.150;17.142;2022-09-30T08:07:25;0.90;;;0.90;;
12308;SDS011;6217;48.150;17.142;2022-09-30T08:11:34;1.85;;;0.82;;
12308;SDS011;6217;48.150;17.142;2022-09-30T08:15:42;2.28;;;1.73;;
12308;SDS011;6217;48.150;17.142;2022-09-30T08:19:48;0.90;;;0.90;;
12308;SDS011;6217;48.150;17.142;2022-09-30T08:23:53;0.95;;;0.90;;
12308;SDS011;6217;48.150;17.142;2022-09-30T08:28:00;1.15;;;1.05;;
12308;SDS011;6217;48.150;17.142;2022-09-30T08:32:06;0.80;;;0.80;;
12308;SDS011;6217;48.150;17.142;2022-09-30T08:36:13;1.13;;;1.02;;
12308;SDS011;6217;48.150;17.142;2022-09-30T08:40:28;1.00;;;0.90;;
12308;SDS011;6217;48.150;17.142;2022-09-30T08:48:58;1.10;;;1.00;;
12308;SDS011;6217;48.150;17.142;2022-09-30T08:53:30;2.70;;;1.27;;
12308;SDS011;6217;48.150;17.142;2022-09-30T08:57:42;1.92;;;1.30;;
12308;SDS011;6217;48.150;17.142;2022-09-30T09:01:50;1.33;;;1.23;;
12308;SDS011;6217;48.150;17.142;2022-09-30T09:06:09;1.70;;;1.60;;
12308;SDS011;6217;48.150;17.142;2022-09-30T09:10:32;3.85;;;2.25;;
12308;SDS011;6217;48.150;17.142;2022-09-30T09:19:19;2.75;;;1.98;;
12308;SDS011;6217;48.150;17.142;2022-09-30T09:23:42;3.40;;;2.20;;
12308;SDS011;6217;48.150;17.142;2022-09-30T09:27:53;3.40;;;2.58;;
12308;SDS011;6217;48.150;17.142;2022-09-30T09:32:08;3.40;;;2.10;;
12308;SDS011;6217;48.150;17.142;2022-09-30T09:40:55;2.40;;;2.20;;
12308;SDS011;6217;48.150;17.142;2022-09-30T09:45:45;3.25;;;2.40;;
12308;SDS011;6217;48.150;17.142;2022-09-30T09:50:10;2.88;;;2.67;;
12308;SDS011;6217;48.150;17.142;2022-09-30T09:54:23;3.22;;;2.63;;
12308;SDS011;6217;48.150;17.142;2022-09-30T09:58:32;4.18;;;2.53;;
12308;SDS011;6217;48.150;17.142;2022-09-30T10:02:38;3.13;;;2.72;;
12308;SDS011;6217;48.150;17.142;2022-09-30T10:11:39;3.00;;;2.35;;
12308;SDS011;6217;48.150;17.142;2022-09-30T10:15:25;3.15;;;2.85;;
12308;SDS011;6217;48.150;17.142;2022-09-30T10:19:33;3.92;;;2.55;;
12308;SDS011;6217;48.150;17.142;2022-09-30T10:23:39;2.83;;;2.60;;
12308;SDS011;6217;48.150;17.142;2022-09-30T10:27:47;3.33;;;3.03;;
12308;SDS011;6217;48.150;17.142;2022-09-30T10:32:05;2.88;;;2.58;;
12308;SDS011;6217;48.150;17.142;2022-09-30T10:36:14;3.38;;;2.95;;
12308;SDS011;6217;48.150;17.142;2022-09-30T10:40:26;4.60;;;3.20;;
12308;SDS011;6217;48.150;17.142;2022-09-30T10:44:37;3.45;;;2.83;;
12308;SDS011;6217;48.150;17.142;2022-09-30T10:48:53;6.68;;;4.82;;
12308;SDS011;6217;48.150;17.142;2022-09-30T10:53:04;4.72;;;2.90;;
12308;SDS011;6217;48.150;17.142;2022-09-30T10:57:25;5.47;;;3.95;;
12308;SDS011;6217;48.150;17.142;2022-09-30T11:01:45;6.55;;;3.25;;
12308;SDS011;6217;48.150;17.142;2022-09-30T11:05:59;4.38;;;3.40;;
12308;SDS011;6217;48.150;17.142;2022-09-30T11:10:08;4.18;;;3.88;;
12308;SDS011;6217;48.150;17.142;2022-09-30T11:14:40;4.70;;;4.25;;
12308;SDS011;6217;48.150;17.142;2022-09-30T11:23:36;5.60;;;5.13;;
12308;SDS011;6217;48.150;17.142;2022-09-30T11:28:05;5.50;;;4.50;;
12308;SDS011;6217;48.150;17.142;2022-09-30T11:32:40;4.95;;;4.35;;
12308;SDS011;6217;48.150;17.142;2022-09-30T11:37:12;6.25;;;3.90;;
12308;SDS011;6217;48.150;17.142;2022-09-30T11:58:56;4.55;;;4.15;;
12308;SDS011;6217;48.150;17.142;2022-09-30T12:03:17;5.82;;;5.22;;
12308;SDS011;6217;48.150;17.142;2022-09-30T12:11:49;8.20;;;6.57;;
12308;SDS011;6217;48.150;17.142;2022-09-30T12:16:09;7.32;;;6.05;;
12308;SDS011;6217;48.150;17.142;2022-09-30T12:20:23;7.25;;;6.65;;
12308;SDS011;6217;48.150;17.142;2022-09-30T12:24:41;8.05;;;7.35;;
12308;SDS011;6217;48.150;17.142;2022-09-30T12:28:52;8.10;;;7.32;;
12308;SDS011;6217;48.150;17.142;2022-09-30T12:33:30;8.80;;;6.88;;
12308;SDS011;6217;48.150;17.142;2022-09-30T12:48:11;5.00;;;4.60;;
12308;SDS011;6217;48.150;17.142;2022-09-30T12:52:22;4.88;;;4.47;;
12308;SDS011;6217;48.150;17.142;2022-09-30T12:56:29;6.63;;;4.95;;
12308;SDS011;6217;48.150;17.142;2022-09-30T13:00:36;8.18;;;6.97;;
12308;SDS011;6217;48.150;17.142;2022-09-30T13:04:42;7.20;;;4.30;;
12308;SDS011;6217;48.150;17.142;2022-09-30T13:13:22;5.50;;;4.97;;
12308;SDS011;6217;48.150;17.142;2022-09-30T13:17:32;6.07;;;5.53;;
12308;SDS011;6217;48.150;17.142;2022-09-30T13:21:40;5.80;;;5.30;;
12308;SDS011;6217;48.150;17.142;2022-09-30T13:25:52;4.60;;;3.85;;
12308;SDS011;6217;48.150;17.142;2022-09-30T13:29:59;4.85;;;4.43;;
12308;SDS011;6217;48.150;17.142;2022-09-30T13:34:09;4.45;;;4.05;;
12308;SDS011;6217;48.150;17.142;2022-09-30T13:38:20;4.10;;;3.80;;
12308;SDS011;6217;48.150;17.142;2022-09-30T13:42:40;10.18;;;4.38;;
12308;SDS011;6217;48.150;17.142;2022-09-30T13:46:52;6.15;;;3.83;;
12308;SDS011;6217;48.150;17.142;2022-09-30T13:51:05;4.45;;;3.78;;
12308;SDS011;6217;48.150;17.142;2022-09-30T13:55:19;4.80;;;4.30;;
12308;SDS011;6217;48.150;17.142;2022-09-30T14:04:15;4.40;;;4.00;;
12308;SDS011;6217;48.150;17.142;2022-09-30T14:08:53;4.57;;;4.18;;
12308;SDS011;6217;48.150;17.142;2022-09-30T14:22:43;4.07;;;3.28;;
12308;SDS011;6217;48.150;17.142;2022-09-30T14:31:44;3.42;;;3.08;;
12308;SDS011;6217;48.150;17.142;2022-09-30T14:40:32;3.53;;;3.23;;
12308;SDS011;6217;48.150;17.142;2022-09-30T14:44:44;3.45;;;2.78;;
12308;SDS011;6217;48.150;17.142;2022-09-30T14:48:54;3.72;;;2.92;;
12308;SDS011;6217;48.150;17.142;2022-09-30T14:53:21;2.88;;;2.67;;
12308;SDS011;6217;48.150;17.142;2022-09-30T14:57:33;3.28;;;2.88;;
12308;SDS011;6217;48.150;17.142;2022-09-30T15:02:13;4.38;;;2.67;;
12308;SDS011;6217;48.150;17.142;2022-09-30T15:06:29;2.97;;;2.45;;
12308;SDS011;6217;48.150;17.142;2022-09-30T15:11:21;6.57;;;2.75;;
12308;SDS011;6217;48.150;17.142;2022-09-30T15:15:38;2.90;;;2.65;;
12308;SDS011;6217;48.150;17.142;2022-09-30T15:20:26;2.90;;;2.65;;
12308;SDS011;6217;48.150;17.142;2022-09-30T15:24:43;2.78;;;2.58;;
12308;SDS011;6217;48.150;17.142;2022-09-30T15:28:52;2.47;;;2.28;;
12308;SDS011;6217;48.150;17.142;2022-09-30T15:33:03;4.88;;;2.45;;
12308;SDS011;6217;48.150;17.142;2022-09-30T15:37:17;2.60;;;2.40;;
12308;SDS011;6217;48.150;17.142;2022-09-30T15:41:36;6.00;;;2.40;;
12308;SDS011;6217;48.150;17.142;2022-09-30T15:45:47;2.90;;;2.20;;
12308;SDS011;6217;48.150;17.142;2022-09-30T15:49:54;2.75;;;1.98;;
12308;SDS011;6217;48.150;17.142;2022-09-30T15:58:39;2.42;;;2.22;;
12308;SDS011;6217;48.150;17.142;2022-09-30T16:03:23;3.20;;;2.30;;
12308;SDS011;6217;48.150;17.142;2022-09-30T16:07:47;2.60;;;2.40;;
12308;SDS011;6217;48.150;17.142;2022-09-30T16:12:18;2.30;;;2.10;;
12308;SDS011;6217;48.150;17.142;2022-09-30T16:21:05;6.22;;;2.58;;
12308;SDS011;6217;48.150;17.142;2022-09-30T16:26:27;4.45;;;2.25;;
12308;SDS011;6217;48.150;17.142;2022-09-30T16:30:48;2.83;;;2.58;;
12308;SDS011;6217;48.150;17.142;2022-09-30T16:34:56;2.75;;;2.20;;
12308;SDS011;6217;48.150;17.142;2022-09-30T16:39:04;3.22;;;2.92;;
12308;SDS011;6217;48.150;17.142;2022-09-30T16:43:10;4.55;;;3.20;;
12308;SDS011;6217;48.150;17.142;2022-09-30T16:47:17;3.33;;;3.03;;
12308;SDS011;6217;48.150;17.142;2022-09-30T16:51:31;4.05;;;2.70;;
12308;SDS011;6217;48.150;17.142;2022-09-30T16:55:37;3.53;;;2.63;;
12308;SDS011;6217;48.150;17.142;2022-09-30T17:00:04;3.33;;;3.03;;
12308;SDS011;6217;48.150;17.142;2022-09-30T17:04:12;3.13;;;2.75;;
12308;SDS011;6217;48.150;17.142;2022-09-30T17:08:18;4.30;;;2.85;;
12308;SDS011;6217;48.150;17.142;2022-09-30T17:12:26;5.68;;;2.45;;
12308;SDS011;6217;48.150;17.142;2022-09-30T17:16:33;3.50;;;2.95;;
12308;SDS011;6217;48.150;17.142;2022-09-30T17:20:44;3.60;;;3.30;;
12308;SDS011;6217;48.150;17.142;2022-09-30T17:24:57;4.30;;;3.33;;
12308;SDS011;6217;48.150;17.142;2022-09-30T17:29:03;5.43;;;4.15;;
12308;SDS011;6217;48.150;17.142;2022-09-30T17:33:10;5.82;;;5.32;;
12308;SDS011;6217;48.150;17.142;2022-09-30T17:37:17;4.30;;;3.90;;
12308;SDS011;6217;48.150;17.142;2022-09-30T17:41:24;6.43;;;5.55;;
12308;SDS011;6217;48.150;17.142;2022-09-30T17:45:49;7.60;;;4.43;;
12308;SDS011;6217;48.150;17.142;2022-09-30T17:49:56;6.63;;;4.47;;
12308;SDS011;6217;48.150;17.142;2022-09-30T17:54:04;4.13;;;3.72;;
12308;SDS011;6217;48.150;17.142;2022-09-30T17:58:11;8.07;;;5.90;;
12308;SDS011;6217;48.150;17.142;2022-09-30T18:02:18;12.18;;;7.00;;
12308;SDS011;6217;48.150;17.142;2022-09-30T18:06:25;5.40;;;4.90;;
12308;SDS011;6217;48.150;17.142;2022-09-30T18:10:34;5.60;;;4.97;;
12308;SDS011;6217;48.150;17.142;2022-09-30T18:14:43;6.00;;;5.43;;
12308;SDS011;6217;48.150;17.142;2022-09-30T18:18:50;8.52;;;5.35;;
12308;SDS011;6217;48.150;17.142;2022-09-30T18:22:56;5.75;;;5.15;;
12308;SDS011;6217;48.150;17.142;2022-09-30T18:27:03;6.22;;;5.57;;
12308;SDS011;6217;48.150;17.142;2022-09-30T18:31:10;6.82;;;5.80;;
12308;SDS011;6217;48.150;17.142;2022-09-30T18:35:25;5.80;;;5.18;;
12308;SDS011;6217;48.150;17.142;2022-09-30T18:39:32;7.47;;;5.45;;
12308;SDS011;6217;48.150;17.142;2022-09-30T18:43:42;7.73;;;6.90;;
12308;SDS011;6217;48.150;17.142;2022-09-30T18:47:52;8.15;;;7.03;;
12308;SDS011;6217;48.150;17.142;2022-09-30T18:52:06;10.88;;;9.88;;
12308;SDS011;6217;48.150;17.142;2022-09-30T18:56:16;8.45;;;7.65;;
12308;SDS011;6217;48.150;17.142;2022-09-30T19:00:27;9.23;;;8.37;;
12308;SDS011;6217;48.150;17.142;2022-09-30T19:04:35;9.13;;;8.27;;
12308;SDS011;6217;48.150;17.142;2022-09-30T19:09:03;13.90;;;11.27;;
12308;SDS011;6217;48.150;17.142;2022-09-30T19:13:12;14.95;;;12.57;;
12308;SDS011;6217;48.150;17.142;2022-09-30T19:17:21;14.02;;;12.45;;
12308;SDS011;6217;48.150;17.142;2022-09-30T19:21:30;13.15;;;11.82;;
12308;SDS011;6217;48.150;17.142;2022-09-30T19:25:41;17.70;;;13.27;;
12308;SDS011;6217;48.150;17.142;2022-09-30T19:29:48;17.10;;;12.30;;
12308;SDS011;6217;48.150;17.142;2022-09-30T19:33:57;12.85;;;11.48;;
12308;SDS011;6217;48.150;17.142;2022-09-30T19:38:03;17.10;;;14.38;;
12308;SDS011;6217;48.150;17.142;2022-09-30T19:42:10;14.23;;;12.75;;
12308;SDS011;6217;48.150;17.142;2022-09-30T19:46:20;17.10;;;13.10;;
12308;SDS011;6217;48.150;17.142;2022-09-30T19:50:26;14.30;;;12.10;;
12308;SDS011;6217;48.150;17.142;2022-09-30T19:54:34;10.57;;;9.43;;
12308;SDS011;6217;48.150;17.142;2022-09-30T19:58:46;11.15;;;8.82;;
12308;SDS011;6217;48.150;17.142;2022-09-30T20:03:18;12.52;;;9.52;;
12308;SDS011;6217;48.150;17.142;2022-09-30T20:07:26;10.77;;;9.70;;
12308;SDS011;6217;48.150;17.142;2022-09-30T20:11:34;11.60;;;9.70;;
12308;SDS011;6217;48.150;17.142;2022-09-30T20:15:42;11.30;;;10.23;;
12308;SDS011;6217;48.150;17.142;2022-09-30T20:19:57;11.10;;;9.85;;
12308;SDS011;6217;48.150;17.142;2022-09-30T20:24:22;12.82;;;11.15;;
12308;SDS011;6217;48.150;17.142;2022-09-30T20:28:37;12.70;;;11.55;;
12308;SDS011;6217;48.150;17.142;2022-09-30T20:32:43;13.82;;;12.20;;
12308;SDS011;6217;48.150;17.142;2022-09-30T20:36:49;15.40;;;11.57;;
12308;SDS011;6217;48.150;17.142;2022-09-30T20:41:01;15.68;;;13.88;;
12308;SDS011;6217;48.150;17.142;2022-09-30T20:45:19;14.95;;;13.45;;
12308;SDS011;6217;48.150;17.142;2022-09-30T20:49:26;16.25;;;14.50;;
12308;SDS011;6217;48.150;17.142;2022-09-30T20:53:32;15.18;;;13.68;;
12308;SDS011;6217;48.150;17.142;2022-09-30T20:57:41;17.23;;;14.65;;
12308;SDS011;6217;48.150;17.142;2022-09-30T21:01:52;16.13;;;14.52;;
12308;SDS011;6217;48.150;17.142;2022-09-30T21:05:58;17.30;;;15.55;;
12308;SDS011;6217;48.150;17.142;2022-09-30T21:10:08;18.33;;;16.58;;
12308;SDS011;6217;48.150;17.142;2022-09-30T21:14:15;16.88;;;15.02;;
12308;SDS011;6217;48.150;17.142;2022-09-30T21:18:24;17.73;;;15.90;;
12308;SDS011;6217;48.150;17.142;2022-09-30T21:22:34;22.02;;;17.52;;
12308;SDS011;6217;48.150;17.142;2022-09-30T21:26:43;16.48;;;14.85;;
12308;SDS011;6217;48.150;17.142;2022-09-30T21:30:49;19.65;;;14.98;;
12308;SDS011;6217;48.150;17.142;2022-09-30T21:34:56;18.00;;;16.23;;
12308;SDS011;6217;48.150;17.142;2022-09-30T21:39:02;19.05;;;15.98;;
12308;SDS011;6217;48.150;17.142;2022-09-30T21:43:09;18.23;;;16.45;;
12308;SDS011;6217;48.150;17.142;2022-09-30T21:47:16;17.10;;;15.50;;
12308;SDS011;6217;48.150;17.142;2022-09-30T21:51:40;17.73;;;16.13;;
12308;SDS011;6217;48.150;17.142;2022-09-30T21:55:47;16.90;;;15.15;;
12308;SDS011;6217;48.150;17.142;2022-09-30T21:59:53;20.67;;;15.13;;
12308;SDS011;6217;48.150;17.142;2022-09-30T22:04:00;18.90;;;17.10;;
12308;SDS011;6217;48.150;17.142;2022-09-30T22:08:10;20.42;;;17.25;;
12308;SDS011;6217;48.150;17.142;2022-09-30T22:12:16;18.88;;;16.98;;
12308;SDS011;6217;48.150;17.142;2022-09-30T22:16:23;21.92;;;19.60;;
12308;SDS011;6217;48.150;17.142;2022-09-30T22:24:40;23.55;;;19.15;;
12308;SDS011;6217;48.150;17.142;2022-09-30T22:33:21;16.83;;;15.15;;
12308;SDS011;6217;48.150;17.142;2022-09-30T22:37:55;15.80;;;13.23;;
12308;SDS011;6217;48.150;17.142;2022-09-30T22:42:23;17.33;;;14.90;;
12308;SDS011;6217;48.150;17.142;2022-09-30T22:46:31;15.68;;;13.35;;
12308;SDS011;6217;48.150;17.142;2022-09-30T22:50:38;16.67;;;14.23;;
12308;SDS011;6217;48.150;17.142;2022-09-30T22:54:45;14.35;;;12.95;;
12308;SDS011;6217;48.150;17.142;2022-09-30T22:58:54;14.30;;;12.90;;
12308;SDS011;6217;48.150;17.142;2022-09-30T23:03:00;16.63;;;12.93;;
12308;SDS011;6217;48.150;17.142;2022-09-30T23:07:28;19.50;;;15.50;;
12308;SDS011;6217;48.150;17.142;2022-09-30T23:11:34;15.23;;;13.35;;
12308;SDS011;6217;48.150;17.142;2022-09-30T23:15:43;15.38;;;13.77;;
12308;SDS011;6217;48.150;17.142;2022-09-30T23:19:50;15.27;;;13.68;;
12308;SDS011;6217;48.150;17.142;2022-09-30T23:24:24;18.13;;;14.50;;
12308;SDS011;6217;48.150;17.142;2022-09-30T23:28:33;15.57;;;13.88;;
12308;SDS011;6217;48.150;17.142;2022-09-30T23:33:15;14.98;;;13.38;;
12308;SDS011;6217;48.150;17.142;2022-09-30T23:42:27;15.05;;;13.45;;
12308;SDS011;6217;48.150;17.142;2022-09-30T23:47:37;15.77;;;13.83;;
12308;SDS011;6217;48.150;17.142;2022-09-30T23:56:44;17.17;;;14.00;;
